Airfield :
LOGIN :

Register | Disclaimer

   EN    FR    IT 

 










Legend :    VFR   Marginal VFR   IFR   Intensive IFR   Very Intensive IFR
Visi :
Ceiling :
>= 8 km
>= 3000ft
5 to 8 km
1000 to 3000 ft
1500m to 5 km
500 to 1000 ft
800 to 1500m
200 to 500 ft
< 800m
< 200 ft
Symbols :   Thunderstorms  Fog  Heavy snow  Heavy precipitations  Wind > 20 kt
SIGMETs :     Misc.  Thunderstorms  Icing  Turbulence  Mountain Waves  Volcanic Ashes







- Airport Elevation : 120 ft
- IATA code : MME
- Download approach charts


EGNV - Durham Tees valley

CURRENT METAR :
  • 231850Z 29004KT 9999 FEW045 07/M01 Q1032

EXPIRED METARs :
  • 231820Z 29003KT 9999 FEW045 08/M00 Q1032
  • 231750Z 31004KT 9999 FEW040 08/00 Q1032
  • 231720Z 30006KT 9999 FEW040 09/M00 Q1032
  • 231650Z 31006KT 280V340 9999 FEW040 09/01 Q1032
  • 231620Z 30008KT 9999 FEW040 10/M00 Q1032

TAF TAF EGNV
Valid from the 23 at 18:00 until the 23 at 22:00 UTC


231657Z 2318/2322 28006KT 9999 FEW040
ATIS : +44 9012 018 111
No reported NOTAMs for that airfield.



MET'MAP, your aeronautical weather chart ! - Copyright ORBIFLY December 2007 - Disclaimer

ORBIFLY MET'MAP TEAM :

Programming & Development : Alexandra Zaïnal
Concept & Development : Baudouin d'Aumeries
Co-Development & Prog : Marc-Olivier Méhu
Technical & hardware support : Manuel Goepfert

Contact : metmap@orbifly.com




SOURCES & CREDITS :

   NOAA